Dodge City, Kansas
Current Conditions -  °F | °C
As of 9:10 AM on Friday 19 Dec 2014 (Local Time) from KDDC Reporting Station
Haze Haze  
Wind Chill: 27°   Ceiling: 200
Heat Index: 34°   Visibility: 2mi
Dew Point: 32°   Wind: 8mph
Humidity: 92%   Direction: 200°SSW
Pressure: 30.18"   Gusts: NA
Location:  37.75°N, 100.01°W
Report Text: KDDC 191510Z AUTO 20007KT 2SM BR OVC002 01/00 A3018 RMK AO2 T00110000
Loading
Personal Weather Stations






























Interactive Weather Map New forecast layout! Learn more

10-Day Weather Forecast

Advertisements
Track Severe Weather on mobile